Clare Christine — V2DT7 — position and weather

sailwx.info

Track history (hours):
 
Tides and Currents Weather Stations Pressure Air Temp Water Temp Dewpoint Dewpoint Depression Visibility Wind Speed Wind Dir Waves Ship Positions

Clare Christine

Last reported at 2016-Jul-22 04:17 UTC. Time now 2016-Jul-25 08:10 UTC.
Position N 54°39' W 001°09'.

Length 89 m; draft 3.4 m.

Type: Cargo ship. MMSI: 305379000.

Date/timePositionNaut miles runAvg speedWind from/ knotsBaromVisibWave heightAir tempDewpointWater temp
2016-Jul-22 04:17N 54°39' W 001°09'6 8.7
2016-Jul-22 03:33N 54°40' W 000°58'7 6.8
2016-Jul-22 02:33N 54°38' W 000°47'10 9.2
2016-Jul-22 01:29N 54°34' W 000°31'9 9.9
2016-Jul-22 00:34N 54°32' W 000°16'7 7.5
2016-Jul-21 23:34N 54°30' W 000°03'8 8.0
2016-Jul-21 22:34N 54°28' E 000°10'8 8.1
2016-Jul-21 21:34N 54°26' E 000°24'10 9.9
2016-Jul-21 20:34N 54°23' E 000°40'10 9.7
2016-Jul-21 19:34N 54°20' E 000°56'42 8.5
2016-Jul-21 14:33N 54°09' E 002°06'1312.3
2016-Jul-21 13:28N 54°05' E 002°28'7510.4
2016-Jul-21 06:17N 54°03' E 004°35'810.6
2016-Jul-21 05:34N 54°04' E 004°48'1110.7
2016-Jul-21 04:34N 54°05' E 005°06'1010.0
2016-Jul-21 03:34N 53°59' E 005°20'1212.2
2016-Jul-21 02:34N 53°56' E 005°40'1212.1
2016-Jul-21 01:34N 53°53' E 005°60'1111.1
2016-Jul-21 00:33N 53°50' E 006°18'10 9.7
2016-Jul-20 23:34N 53°40' E 006°22'8 7.6
2016-Jul-20 22:33N 53°37' E 006°33'1010.4
2016-Jul-20 21:34N 53°31' E 006°47'9 9.5
2016-Jul-20 20:34N 53°23' E 006°58'7 7.1
2016-Jul-20 19:34N 53°20' E 007°08'2 2.2
2016-Jul-20 18:34N 53°21' E 007°12'0 0.2
2016-Jul-20 17:34N 53°20' E 007°12'0 0.0
2016-Jul-20 16:33N 53°20' E 007°12'0 0.0
2016-Jul-20 15:33N 53°20' E 007°12'0 0.0
2016-Jul-20 14:30N 53°20' E 007°12'0 0.0
2016-Jul-20 13:33N 53°20' E 007°12'0 0.0
2016-Jul-20 12:33N 53°20' E 007°12'0 0.0
2016-Jul-20 11:33N 53°20' E 007°12'0 0.0
2016-Jul-20 10:33N 53°20' E 007°12'0 0.0
2016-Jul-20 09:33N 53°20' E 007°12'0 0.0
2016-Jul-20 08:33N 53°20' E 007°12'0 0.0
2016-Jul-20 07:33N 53°20' E 007°12'0 0.0
2016-Jul-20 06:33N 53°20' E 007°12'0 0.0
2016-Jul-20 05:33N 53°20' E 007°12'0 0.0
2016-Jul-20 04:33N 53°20' E 007°12'0 0.0
2016-Jul-20 03:33N 53°20' E 007°12'0 0.0
2016-Jul-20 02:33N 53°20' E 007°12'0 0.0
2016-Jul-20 01:33N 53°20' E 007°12'0 0.0
2016-Jul-20 00:33N 53°20' E 007°12'0 0.0
2016-Jul-19 23:33N 53°20' E 007°12'0 0.0
2016-Jul-19 22:33N 53°20' E 007°12'0 0.0
2016-Jul-19 21:33N 53°20' E 007°12'0 0.0
2016-Jul-19 20:33N 53°20' E 007°12'0 0.0
2016-Jul-19 19:33N 53°20' E 007°12'0 0.0
2016-Jul-19 18:30N 53°20' E 007°12'0 0.0
2016-Jul-19 17:33N 53°20' E 007°12'0 0.0
2016-Jul-19 16:33N 53°20' E 007°12'0 0.0
2016-Jul-19 15:33N 53°20' E 007°12'0 0.0
2016-Jul-19 14:30N 53°20' E 007°12'0 0.0
2016-Jul-19 13:30N 53°20' E 007°12'0 0.0
2016-Jul-19 12:33N 53°20' E 007°12'0 0.0
2016-Jul-19 11:27N 53°20' E 007°12'0 0.0
2016-Jul-19 10:30N 53°20' E 007°12'0 0.0
2016-Jul-19 09:33N 53°20' E 007°12'0 0.0
2016-Jul-19 08:33N 53°20' E 007°12'0 0.0
2016-Jul-19 07:33N 53°20' E 007°12'0 0.0
2016-Jul-19 04:33N 53°20' E 007°12'0 0.0
2016-Jul-19 03:33N 53°20' E 007°12'0 0.0
2016-Jul-19 02:24N 53°20' E 007°12'0 0.0
2016-Jul-19 01:30N 53°20' E 007°12'0 0.0
2016-Jul-19 00:33N 53°20' E 007°12'0 0.0
2016-Jul-18 23:30N 53°20' E 007°12'0 0.0
2016-Jul-18 22:33N 53°20' E 007°12'0 0.0
2016-Jul-18 21:30N 53°20' E 007°12'0 0.0
2016-Jul-18 20:33N 53°20' E 007°12'0 0.0
2016-Jul-18 19:30N 53°20' E 007°12'0 0.0
2016-Jul-18 18:33N 53°20' E 007°12'0 0.0
2016-Jul-18 17:33N 53°20' E 007°12'0 0.0
2016-Jul-18 16:30N 53°20' E 007°12'0 0.0
2016-Jul-18 15:24N 53°20' E 007°12'0 0.0
2016-Jul-18 14:27N 53°20' E 007°12'0 0.0
2016-Jul-18 13:27N 53°20' E 007°12'0 0.0
2016-Jul-18 12:33N 53°20' E 007°12'0 0.0
2016-Jul-18 11:27N 53°20' E 007°12'0 0.0
2016-Jul-18 10:33N 53°20' E 007°12'0 0.0
2016-Jul-18 09:33N 53°20' E 007°12'0 0.0
2016-Jul-18 08:33N 53°20' E 007°12'0 0.0
2016-Jul-18 07:33N 53°20' E 007°12'0 0.0
2016-Jul-18 06:33N 53°20' E 007°12'0 0.0
2016-Jul-18 05:33N 53°20' E 007°12'0 0.0
2016-Jul-18 04:33N 53°20' E 007°12'0 0.0
2016-Jul-18 03:33N 53°20' E 007°12'1 0.6
2016-Jul-18 02:33N 53°20' E 007°11'4 4.1
2016-Jul-18 01:33N 53°20' E 007°05'2 2.0
2016-Jul-18 00:33N 53°19' E 007°01'0 0.0
2016-Jul-17 23:33N 53°19' E 007°01'0 0.1
2016-Jul-17 22:33N 53°19' E 007°01'0 0.1
2016-Jul-17 21:33N 53°19' E 007°02'0 0.0
2016-Jul-17 20:33N 53°19' E 007°01'0 0.0
2016-Jul-17 19:33N 53°19' E 007°01'0 0.0
2016-Jul-17 18:33N 53°19' E 007°01'0 0.0
2016-Jul-17 17:33N 53°19' E 007°01'0 0.0
2016-Jul-17 16:30N 53°19' E 007°01'0 0.0
2016-Jul-17 15:33N 53°19' E 007°01'0 0.1
2016-Jul-17 14:33N 53°19' E 007°01'0 0.0
2016-Jul-17 13:27N 53°19' E 007°01'0 0.0
2016-Jul-17 12:30N 53°19' E 007°01'0 0.0
2016-Jul-17 11:30N 53°19' E 007°01'0 0.0
2016-Jul-17 10:33N 53°19' E 007°01'0 0.1
2016-Jul-17 09:30N 53°19' E 007°01'0 0.0
2016-Jul-17 08:33N 53°19' E 007°01'0 0.0
2016-Jul-17 07:33N 53°19' E 007°01'0 0.0
2016-Jul-17 06:33N 53°19' E 007°01'0 0.0
2016-Jul-17 04:30N 53°19' E 007°01'0 0.0
2016-Jul-17 03:33N 53°19' E 007°01'0 0.1
2016-Jul-17 02:33N 53°19' E 007°01'0 0.0
2016-Jul-17 01:33N 53°19' E 007°01'0 0.0
2016-Jul-17 00:33N 53°19' E 007°01'0 0.0
2016-Jul-16 23:33N 53°19' E 007°01'0 0.0
2016-Jul-16 22:33N 53°19' E 007°01'0 0.1
2016-Jul-16 21:33N 53°19' E 007°01'0 0.1
2016-Jul-16 20:30N 53°19' E 007°01'0 0.0
2016-Jul-16 19:33N 53°19' E 007°01'0 0.0
2016-Jul-16 18:30N 53°19' E 007°01'0 0.0
2016-Jul-16 17:33N 53°19' E 007°01'0 0.0
2016-Jul-16 16:33N 53°19' E 007°01'0 0.0
2016-Jul-16 15:33N 53°19' E 007°01'0 0.1
2016-Jul-16 14:33N 53°19' E 007°01'0 0.0
2016-Jul-16 13:33N 53°19' E 007°01'0 0.0
2016-Jul-16 12:33N 53°19' E 007°01'0 0.0
2016-Jul-16 11:33N 53°19' E 007°01'0 0.0
2016-Jul-16 10:33N 53°19' E 007°01'0 0.1
2016-Jul-16 09:33N 53°19' E 007°01'0 0.0
2016-Jul-16 08:33N 53°19' E 007°02'0 0.0
2016-Jul-16 07:33N 53°19' E 007°02'0 0.0
2016-Jul-16 06:33N 53°19' E 007°01'0 0.0
2016-Jul-16 04:33N 53°19' E 007°01'4 3.7
2016-Jul-16 03:33N 53°22' E 006°58'1212.3
2016-Jul-16 02:33N 53°32' E 006°45'1111.0
2016-Jul-16 01:33N 53°37' E 006°28'1010.4
2016-Jul-16 00:33N 53°39' E 006°11'9 9.5
2016-Jul-15 23:33N 53°39' E 005°55'10 9.7
2016-Jul-15 22:33N 53°36' E 005°40'10 9.6
2016-Jul-15 21:33N 53°33' E 005°25'9 9.5
2016-Jul-15 20:33N 53°29' E 005°10'32 9.2
2016-Jul-15 17:05N 53°09' E 004°29'5 9.7
2016-Jul-15 16:32N 53°04' E 004°25'10 9.9
2016-Jul-15 15:33N 52°55' E 004°18'1010.3
2016-Jul-15 14:33N 52°46' E 004°10'1410.7
2016-Jul-15 13:15N 52°36' E 003°53'1910.8
2016-Jul-15 11:31N 52°23' E 003°31'1111.1
2016-Jul-15 10:33N 52°16' E 003°19'1111.0
2016-Jul-15 09:33N 52°07' E 003°07'1110.6
2016-Jul-15 08:33N 51°60' E 002°55'1010.3
2016-Jul-15 07:33N 51°53' E 002°43'9 9.4
2016-Jul-15 06:33N 51°52' E 002°28'9 9.1
2016-Jul-15 05:33N 51°47' E 002°16'9 8.8
2016-Jul-15 04:33N 51°41' E 002°05'9 8.8
2016-Jul-15 03:33N 51°36' E 001°54'9 9.4
2016-Jul-15 02:33N 51°31' E 001°41'1110.5
2016-Jul-15 01:33N 51°28' E 001°25'1111.5
2016-Jul-15 00:33N 51°29' E 001°06'1211.7
2016-Jul-14 23:33N 51°29' E 000°47'1312.7
2016-Jul-14 22:34N 51°28' E 000°27'4 4.0
2016-Jul-14 21:34N 51°27' E 000°21'0 0.2
2016-Jul-14 20:34N 51°27' E 000°21'0 0.0
2016-Jul-14 19:34N 51°27' E 000°21'0 0.0
2016-Jul-14 18:34N 51°27' E 000°21'0 0.0
2016-Jul-14 17:34N 51°27' E 000°21'0 0.0
2016-Jul-14 16:34N 51°27' E 000°21'0 0.0
2016-Jul-14 15:34N 51°27' E 000°21'0 0.0
2016-Jul-14 14:34N 51°27' E 000°21'0 0.0
2016-Jul-14 13:34N 51°27' E 000°21'0 0.0
2016-Jul-14 12:34N 51°27' E 000°21'0 0.0
2016-Jul-14 11:34N 51°27' E 000°21'0 0.0
2016-Jul-14 10:34N 51°27' E 000°21'0 0.0
2016-Jul-14 09:34N 51°27' E 000°21'0 0.0
2016-Jul-14 08:34N 51°27' E 000°21'0 0.0
2016-Jul-14 07:34N 51°27' E 000°21'0 0.0
2016-Jul-14 06:34N 51°27' E 000°21'0 0.0
2016-Jul-14 05:34N 51°27' E 000°21'0 0.0
2016-Jul-14 04:34N 51°27' E 000°21'0 0.0
2016-Jul-14 03:34N 51°27' E 000°21'0 0.0
2016-Jul-14 02:34N 51°27' E 000°21'0 0.0
2016-Jul-14 01:34N 51°27' E 000°21'0 0.0
2016-Jul-14 00:34N 51°27' E 000°21'0 0.0
2016-Jul-13 23:34N 51°27' E 000°21'0 0.0
2016-Jul-13 22:34N 51°27' E 000°21'0 0.0
2016-Jul-13 21:34N 51°27' E 000°21'0 0.0
2016-Jul-13 20:34N 51°27' E 000°21'0 0.0
2016-Jul-13 19:34N 51°27' E 000°21'0 0.0
2016-Jul-13 18:34N 51°27' E 000°21'0 0.0
2016-Jul-13 17:34N 51°27' E 000°21'0 0.0
2016-Jul-13 16:34N 51°27' E 000°21'0 0.0
2016-Jul-13 15:34N 51°27' E 000°21'0 0.0
2016-Jul-13 14:34N 51°27' E 000°21'0 0.0
2016-Jul-13 13:34N 51°27' E 000°21'0 0.0
2016-Jul-13 12:34N 51°27' E 000°21'0 0.3
2016-Jul-13 11:34N 51°27' E 000°21'1 0.5
2016-Jul-13 10:34N 51°27' E 000°21'8 7.9
2016-Jul-13 09:34N 51°30' E 000°33'9 9.1
2016-Jul-13 08:33N 51°30' E 000°47'5 5.1
2016-Jul-13 07:33N 51°30' E 000°55'6 5.6
2016-Jul-13 06:34N 51°30' E 001°04'1110.9
2016-Jul-13 05:34N 51°29' E 001°22'1110.9
2016-Jul-13 04:34N 51°31' E 001°39'1111.0
2016-Jul-13 03:33N 51°35' E 001°56'5 5.3
2016-Jul-13 02:34N 51°39' E 002°01'2511.6
2016-Jul-13 00:24N 51°54' E 002°33'1011.3
2016-Jul-12 23:33N 52°00' E 002°45'1110.8
2016-Jul-12 22:33N 52°04' E 003°02'1111.0
2016-Jul-12 21:33N 52°04' E 003°20'1010.3
2016-Jul-12 20:33N 52°04' E 003°36'1010.2
2016-Jul-12 19:34N 52°03' E 003°53'10 9.5
2016-Jul-12 18:34N 51°59' E 004°06'1110.5
2016-Jul-12 17:34N 51°54' E 004°21'2 2.1
2016-Jul-12 16:32N 51°55' E 004°25'0 0.0
2016-Jul-12 15:32N 51°55' E 004°25'0 0.0
2016-Jul-12 14:32N 51°55' E 004°25'0 0.0
2016-Jul-12 13:32N 51°55' E 004°25'0 0.0
2016-Jul-12 12:32N 51°55' E 004°25'0 0.0
2016-Jul-12 11:32N 51°55' E 004°25'0 0.0
2016-Jul-12 10:29N 51°55' E 004°25'0 0.0
2016-Jul-12 09:32N 51°55' E 004°25'0 0.0
2016-Jul-12 08:32N 51°55' E 004°25'0 0.0
2016-Jul-12 07:32N 51°55' E 004°25'0 0.0
2016-Jul-12 06:32N 51°55' E 004°25'0 0.0
2016-Jul-12 05:32N 51°55' E 004°25'0 0.1
2016-Jul-12 04:32N 51°55' E 004°25'  
Track history (hours):
 
Tides and Currents Weather Stations Pressure Air Temp Water Temp Dewpoint Dewpoint Depression Visibility Wind Speed Wind Dir Waves Ship Positions

Clare Christine

Last reported at 2016-Jul-22 04:17 UTC. Time now 2016-Jul-25 08:10 UTC.
Position N 54°39' W 001°09'.

Length 89 m; draft 3.4 m.

Type: Cargo ship. MMSI: 305379000.

Date/timePositionNaut miles runAvg speedWind from/ knotsBaromVisibWave heightAir tempDewpointWater temp
2016-Jul-22 04:17N 54°39' W 001°09'6 8.7
2016-Jul-22 03:33N 54°40' W 000°58'7 6.8
2016-Jul-22 02:33N 54°38' W 000°47'10 9.2
2016-Jul-22 01:29N 54°34' W 000°31'9 9.9
2016-Jul-22 00:34N 54°32' W 000°16'7 7.5
2016-Jul-21 23:34N 54°30' W 000°03'8 8.0
2016-Jul-21 22:34N 54°28' E 000°10'8 8.1
2016-Jul-21 21:34N 54°26' E 000°24'10 9.9
2016-Jul-21 20:34N 54°23' E 000°40'10 9.7
2016-Jul-21 19:34N 54°20' E 000°56'42 8.5
2016-Jul-21 14:33N 54°09' E 002°06'1312.3
2016-Jul-21 13:28N 54°05' E 002°28'7510.4
2016-Jul-21 06:17N 54°03' E 004°35'810.6
2016-Jul-21 05:34N 54°04' E 004°48'1110.7
2016-Jul-21 04:34N 54°05' E 005°06'1010.0
2016-Jul-21 03:34N 53°59' E 005°20'1212.2
2016-Jul-21 02:34N 53°56' E 005°40'1212.1
2016-Jul-21 01:34N 53°53' E 005°60'1111.1
2016-Jul-21 00:33N 53°50' E 006°18'10 9.7
2016-Jul-20 23:34N 53°40' E 006°22'8 7.6
2016-Jul-20 22:33N 53°37' E 006°33'1010.4
2016-Jul-20 21:34N 53°31' E 006°47'9 9.5
2016-Jul-20 20:34N 53°23' E 006°58'7 7.1
2016-Jul-20 19:34N 53°20' E 007°08'2 2.2
2016-Jul-20 18:34N 53°21' E 007°12'0 0.2
2016-Jul-20 17:34N 53°20' E 007°12'0 0.0
2016-Jul-20 16:33N 53°20' E 007°12'0 0.0
2016-Jul-20 15:33N 53°20' E 007°12'0 0.0
2016-Jul-20 14:30N 53°20' E 007°12'0 0.0
2016-Jul-20 13:33N 53°20' E 007°12'0 0.0
2016-Jul-20 12:33N 53°20' E 007°12'0 0.0
2016-Jul-20 11:33N 53°20' E 007°12'0 0.0
2016-Jul-20 10:33N 53°20' E 007°12'0 0.0
2016-Jul-20 09:33N 53°20' E 007°12'0 0.0
2016-Jul-20 08:33N 53°20' E 007°12'0 0.0
2016-Jul-20 07:33N 53°20' E 007°12'0 0.0
2016-Jul-20 06:33N 53°20' E 007°12'0 0.0
2016-Jul-20 05:33N 53°20' E 007°12'0 0.0
2016-Jul-20 04:33N 53°20' E 007°12'0 0.0
2016-Jul-20 03:33N 53°20' E 007°12'0 0.0
2016-Jul-20 02:33N 53°20' E 007°12'0 0.0
2016-Jul-20 01:33N 53°20' E 007°12'0 0.0
2016-Jul-20 00:33N 53°20' E 007°12'0 0.0
2016-Jul-19 23:33N 53°20' E 007°12'0 0.0
2016-Jul-19 22:33N 53°20' E 007°12'0 0.0
2016-Jul-19 21:33N 53°20' E 007°12'0 0.0
2016-Jul-19 20:33N 53°20' E 007°12'0 0.0
2016-Jul-19 19:33N 53°20' E 007°12'0 0.0
2016-Jul-19 18:30N 53°20' E 007°12'0 0.0
2016-Jul-19 17:33N 53°20' E 007°12'0 0.0
2016-Jul-19 16:33N 53°20' E 007°12'0 0.0
2016-Jul-19 15:33N 53°20' E 007°12'0 0.0
2016-Jul-19 14:30N 53°20' E 007°12'0 0.0
2016-Jul-19 13:30N 53°20' E 007°12'0 0.0
2016-Jul-19 12:33N 53°20' E 007°12'0 0.0
2016-Jul-19 11:27N 53°20' E 007°12'0 0.0
2016-Jul-19 10:30N 53°20' E 007°12'0 0.0
2016-Jul-19 09:33N 53°20' E 007°12'0 0.0
2016-Jul-19 08:33N 53°20' E 007°12'0 0.0
2016-Jul-19 07:33N 53°20' E 007°12'0 0.0
2016-Jul-19 04:33N 53°20' E 007°12'0 0.0
2016-Jul-19 03:33N 53°20' E 007°12'0 0.0
2016-Jul-19 02:24N 53°20' E 007°12'0 0.0
2016-Jul-19 01:30N 53°20' E 007°12'0 0.0
2016-Jul-19 00:33N 53°20' E 007°12'0 0.0
2016-Jul-18 23:30N 53°20' E 007°12'0 0.0
2016-Jul-18 22:33N 53°20' E 007°12'0 0.0
2016-Jul-18 21:30N 53°20' E 007°12'0 0.0
2016-Jul-18 20:33N 53°20' E 007°12'0 0.0
2016-Jul-18 19:30N 53°20' E 007°12'0 0.0
2016-Jul-18 18:33N 53°20' E 007°12'0 0.0
2016-Jul-18 17:33N 53°20' E 007°12'0 0.0
2016-Jul-18 16:30N 53°20' E 007°12'0 0.0
2016-Jul-18 15:24N 53°20' E 007°12'0 0.0
2016-Jul-18 14:27N 53°20' E 007°12'0 0.0
2016-Jul-18 13:27N 53°20' E 007°12'0 0.0
2016-Jul-18 12:33N 53°20' E 007°12'0 0.0
2016-Jul-18 11:27N 53°20' E 007°12'0 0.0
2016-Jul-18 10:33N 53°20' E 007°12'0 0.0
2016-Jul-18 09:33N 53°20' E 007°12'0 0.0
2016-Jul-18 08:33N 53°20' E 007°12'0 0.0
2016-Jul-18 07:33N 53°20' E 007°12'0 0.0
2016-Jul-18 06:33N 53°20' E 007°12'0 0.0
2016-Jul-18 05:33N 53°20' E 007°12'0 0.0
2016-Jul-18 04:33N 53°20' E 007°12'0 0.0
2016-Jul-18 03:33N 53°20' E 007°12'1 0.6
2016-Jul-18 02:33N 53°20' E 007°11'4 4.1
2016-Jul-18 01:33N 53°20' E 007°05'2 2.0
2016-Jul-18 00:33N 53°19' E 007°01'0 0.0
2016-Jul-17 23:33N 53°19' E 007°01'0 0.1
2016-Jul-17 22:33N 53°19' E 007°01'0 0.1
2016-Jul-17 21:33N 53°19' E 007°02'0 0.0
2016-Jul-17 20:33N 53°19' E 007°01'0 0.0
2016-Jul-17 19:33N 53°19' E 007°01'0 0.0
2016-Jul-17 18:33N 53°19' E 007°01'0 0.0
2016-Jul-17 17:33N 53°19' E 007°01'0 0.0
2016-Jul-17 16:30N 53°19' E 007°01'0 0.0
2016-Jul-17 15:33N 53°19' E 007°01'0 0.1
2016-Jul-17 14:33N 53°19' E 007°01'0 0.0
2016-Jul-17 13:27N 53°19' E 007°01'0 0.0
2016-Jul-17 12:30N 53°19' E 007°01'0 0.0
2016-Jul-17 11:30N 53°19' E 007°01'0 0.0
2016-Jul-17 10:33N 53°19' E 007°01'0 0.1
2016-Jul-17 09:30N 53°19' E 007°01'0 0.0
2016-Jul-17 08:33N 53°19' E 007°01'0 0.0
2016-Jul-17 07:33N 53°19' E 007°01'0 0.0
2016-Jul-17 06:33N 53°19' E 007°01'0 0.0
2016-Jul-17 04:30N 53°19' E 007°01'0 0.0
2016-Jul-17 03:33N 53°19' E 007°01'0 0.1
2016-Jul-17 02:33N 53°19' E 007°01'0 0.0
2016-Jul-17 01:33N 53°19' E 007°01'0 0.0
2016-Jul-17 00:33N 53°19' E 007°01'0 0.0
2016-Jul-16 23:33N 53°19' E 007°01'0 0.0
2016-Jul-16 22:33N 53°19' E 007°01'0 0.1
2016-Jul-16 21:33N 53°19' E 007°01'0 0.1
2016-Jul-16 20:30N 53°19' E 007°01'0 0.0
2016-Jul-16 19:33N 53°19' E 007°01'0 0.0
2016-Jul-16 18:30N 53°19' E 007°01'0 0.0
2016-Jul-16 17:33N 53°19' E 007°01'0 0.0
2016-Jul-16 16:33N 53°19' E 007°01'0 0.0
2016-Jul-16 15:33N 53°19' E 007°01'0 0.1
2016-Jul-16 14:33N 53°19' E 007°01'0 0.0
2016-Jul-16 13:33N 53°19' E 007°01'0 0.0
2016-Jul-16 12:33N 53°19' E 007°01'0 0.0
2016-Jul-16 11:33N 53°19' E 007°01'0 0.0
2016-Jul-16 10:33N 53°19' E 007°01'0 0.1
2016-Jul-16 09:33N 53°19' E 007°01'0 0.0
2016-Jul-16 08:33N 53°19' E 007°02'0 0.0
2016-Jul-16 07:33N 53°19' E 007°02'0 0.0
2016-Jul-16 06:33N 53°19' E 007°01'0 0.0
2016-Jul-16 04:33N 53°19' E 007°01'4 3.7
2016-Jul-16 03:33N 53°22' E 006°58'1212.3
2016-Jul-16 02:33N 53°32' E 006°45'1111.0
2016-Jul-16 01:33N 53°37' E 006°28'1010.4
2016-Jul-16 00:33N 53°39' E 006°11'9 9.5
2016-Jul-15 23:33N 53°39' E 005°55'10 9.7
2016-Jul-15 22:33N 53°36' E 005°40'10 9.6
2016-Jul-15 21:33N 53°33' E 005°25'9 9.5
2016-Jul-15 20:33N 53°29' E 005°10'32 9.2
2016-Jul-15 17:05N 53°09' E 004°29'5 9.7
2016-Jul-15 16:32N 53°04' E 004°25'10 9.9
2016-Jul-15 15:33N 52°55' E 004°18'1010.3
2016-Jul-15 14:33N 52°46' E 004°10'1410.7
2016-Jul-15 13:15N 52°36' E 003°53'1910.8
2016-Jul-15 11:31N 52°23' E 003°31'1111.1
2016-Jul-15 10:33N 52°16' E 003°19'1111.0
2016-Jul-15 09:33N 52°07' E 003°07'1110.6
2016-Jul-15 08:33N 51°60' E 002°55'1010.3
2016-Jul-15 07:33N 51°53' E 002°43'9 9.4
2016-Jul-15 06:33N 51°52' E 002°28'9 9.1
2016-Jul-15 05:33N 51°47' E 002°16'9 8.8
2016-Jul-15 04:33N 51°41' E 002°05'9 8.8
2016-Jul-15 03:33N 51°36' E 001°54'9 9.4
2016-Jul-15 02:33N 51°31' E 001°41'1110.5
2016-Jul-15 01:33N 51°28' E 001°25'1111.5
2016-Jul-15 00:33N 51°29' E 001°06'1211.7
2016-Jul-14 23:33N 51°29' E 000°47'1312.7
2016-Jul-14 22:34N 51°28' E 000°27'4 4.0
2016-Jul-14 21:34N 51°27' E 000°21'0 0.2
2016-Jul-14 20:34N 51°27' E 000°21'0 0.0
2016-Jul-14 19:34N 51°27' E 000°21'0 0.0
2016-Jul-14 18:34N 51°27' E 000°21'0 0.0
2016-Jul-14 17:34N 51°27' E 000°21'0 0.0
2016-Jul-14 16:34N 51°27' E 000°21'0 0.0
2016-Jul-14 15:34N 51°27' E 000°21'0 0.0
2016-Jul-14 14:34N 51°27' E 000°21'0 0.0
2016-Jul-14 13:34N 51°27' E 000°21'0 0.0
2016-Jul-14 12:34N 51°27' E 000°21'0 0.0
2016-Jul-14 11:34N 51°27' E 000°21'0 0.0
2016-Jul-14 10:34N 51°27' E 000°21'0 0.0
2016-Jul-14 09:34N 51°27' E 000°21'0 0.0
2016-Jul-14 08:34N 51°27' E 000°21'0 0.0
2016-Jul-14 07:34N 51°27' E 000°21'0 0.0
2016-Jul-14 06:34N 51°27' E 000°21'0 0.0
2016-Jul-14 05:34N 51°27' E 000°21'0 0.0
2016-Jul-14 04:34N 51°27' E 000°21'0 0.0
2016-Jul-14 03:34N 51°27' E 000°21'0 0.0
2016-Jul-14 02:34N 51°27' E 000°21'0 0.0
2016-Jul-14 01:34N 51°27' E 000°21'0 0.0
2016-Jul-14 00:34N 51°27' E 000°21'0 0.0
2016-Jul-13 23:34N 51°27' E 000°21'0 0.0
2016-Jul-13 22:34N 51°27' E 000°21'0 0.0
2016-Jul-13 21:34N 51°27' E 000°21'0 0.0
2016-Jul-13 20:34N 51°27' E 000°21'0 0.0
2016-Jul-13 19:34N 51°27' E 000°21'0 0.0
2016-Jul-13 18:34N 51°27' E 000°21'0 0.0
2016-Jul-13 17:34N 51°27' E 000°21'0 0.0
2016-Jul-13 16:34N 51°27' E 000°21'0 0.0
2016-Jul-13 15:34N 51°27' E 000°21'0 0.0
2016-Jul-13 14:34N 51°27' E 000°21'0 0.0
2016-Jul-13 13:34N 51°27' E 000°21'0 0.0
2016-Jul-13 12:34N 51°27' E 000°21'0 0.3
2016-Jul-13 11:34N 51°27' E 000°21'1 0.5
2016-Jul-13 10:34N 51°27' E 000°21'8 7.9
2016-Jul-13 09:34N 51°30' E 000°33'9 9.1
2016-Jul-13 08:33N 51°30' E 000°47'5 5.1
2016-Jul-13 07:33N 51°30' E 000°55'6 5.6
2016-Jul-13 06:34N 51°30' E 001°04'1110.9
2016-Jul-13 05:34N 51°29' E 001°22'1110.9
2016-Jul-13 04:34N 51°31' E 001°39'1111.0
2016-Jul-13 03:33N 51°35' E 001°56'5 5.3
2016-Jul-13 02:34N 51°39' E 002°01'2511.6
2016-Jul-13 00:24N 51°54' E 002°33'1011.3
2016-Jul-12 23:33N 52°00' E 002°45'1110.8
2016-Jul-12 22:33N 52°04' E 003°02'1111.0
2016-Jul-12 21:33N 52°04' E 003°20'1010.3
2016-Jul-12 20:33N 52°04' E 003°36'1010.2
2016-Jul-12 19:34N 52°03' E 003°53'10 9.5
2016-Jul-12 18:34N 51°59' E 004°06'1110.5
2016-Jul-12 17:34N 51°54' E 004°21'2 2.1
2016-Jul-12 16:32N 51°55' E 004°25'0 0.0
2016-Jul-12 15:32N 51°55' E 004°25'0 0.0
2016-Jul-12 14:32N 51°55' E 004°25'0 0.0
2016-Jul-12 13:32N 51°55' E 004°25'0 0.0
2016-Jul-12 12:32N 51°55' E 004°25'0 0.0
2016-Jul-12 11:32N 51°55' E 004°25'0 0.0
2016-Jul-12 10:29N 51°55' E 004°25'0 0.0
2016-Jul-12 09:32N 51°55' E 004°25'0 0.0
2016-Jul-12 08:32N 51°55' E 004°25'0 0.0
2016-Jul-12 07:32N 51°55' E 004°25'0 0.0
2016-Jul-12 06:32N 51°55' E 004°25'0 0.0
2016-Jul-12 05:32N 51°55' E 004°25'0 0.1
2016-Jul-12 04:32N 51°55' E 004°25'  

Dump ship's entire track history